createdAt,value
2022-09-13T00:02:04.238Z,89.73
2022-09-13T00:05:08.170Z,89.72
2022-09-13T00:08:12.375Z,89.36
2022-09-13T00:11:17.880Z,89.30
2022-09-13T00:14:20.655Z,89.41
2022-09-13T00:17:23.552Z,89.52
2022-09-13T00:20:26.606Z,89.11
2022-09-13T00:23:31.381Z,89.34
2022-09-13T00:26:34.088Z,89.25
2022-09-13T00:29:36.780Z,89.27
2022-09-13T00:32:39.954Z,89.13
2022-09-13T00:35:42.648Z,89.28
2022-09-13T00:38:47.105Z,89.28
2022-09-13T00:41:50.115Z,89.11
2022-09-13T00:44:58.839Z,89.40
2022-09-13T00:48:06.712Z,89.29
2022-09-13T00:51:11.286Z,89.82
2022-09-13T00:54:18.309Z,89.75
2022-09-13T00:57:23.117Z,89.86
2022-09-13T01:00:25.953Z,90.51
2022-09-13T01:03:32.224Z,90.77
2022-09-13T01:06:37.333Z,91.04
2022-09-13T01:09:45.896Z,91.21
2022-09-13T01:12:55.199Z,90.93
2022-09-13T01:15:57.894Z,91.25
2022-09-13T01:19:01.118Z,91.18
2022-09-13T01:22:25.098Z,91.05
2022-09-13T01:25:56.737Z,90.70
2022-09-13T01:29:21.137Z,90.92
2022-09-13T01:32:35.363Z,90.77
2022-09-13T01:35:49.121Z,90.92
2022-09-13T01:38:59.658Z,91.35
2022-09-13T01:42:16.871Z,91.64
2022-09-13T01:45:30.412Z,91.54
2022-09-13T01:48:45.156Z,91.43
2022-09-13T01:51:56.253Z,91.63
2022-09-13T01:55:09.319Z,91.37
2022-09-13T01:58:22.540Z,91.46
2022-09-13T02:01:31.732Z,92.11
2022-09-13T02:04:40.172Z,93.41
2022-09-13T02:07:44.769Z,93.68
2022-09-13T02:10:50.536Z,94.24
2022-09-13T02:13:59.653Z,93.45
2022-09-13T02:17:07.230Z,93.21
2022-09-13T02:20:17.783Z,93.01
2022-09-13T02:23:27.569Z,92.74
2022-09-13T02:26:32.709Z,92.96
2022-09-13T02:29:38.652Z,93.08
2022-09-13T02:32:45.261Z,93.17
2022-09-13T02:35:55.313Z,93.17
2022-09-13T02:39:01.176Z,93.71
2022-09-13T02:42:12.465Z,93.89
2022-09-13T02:45:16.428Z,94.71
2022-09-13T02:48:28.088Z,94.92
2022-09-13T02:51:39.709Z,95.62
2022-09-13T02:54:46.901Z,96.71
2022-09-13T02:58:01.789Z,95.88
2022-09-13T03:01:04.827Z,95.49
2022-09-13T03:04:08.685Z,95.20
2022-09-13T03:07:14.829Z,94.94
2022-09-13T03:10:18.241Z,94.50
2022-09-13T03:13:41.087Z,93.97
2022-09-13T03:16:56.051Z,94.19
2022-09-13T03:20:12.940Z,93.88
2022-09-13T03:23:35.920Z,93.88
2022-09-13T03:26:47.442Z,93.81
2022-09-13T03:29:56.960Z,93.68
2022-09-13T03:33:05.890Z,93.74
2022-09-13T03:36:15.673Z,93.62
2022-09-13T03:39:26.434Z,93.36
2022-09-13T03:42:34.896Z,93.33
2022-09-13T03:45:42.309Z,93.02
2022-09-13T03:48:45.936Z,93.35
2022-09-13T03:51:50.861Z,93.43
2022-09-13T03:54:55.108Z,93.17
2022-09-13T03:57:57.809Z,93.49
2022-09-13T04:01:00.546Z,93.40
2022-09-13T04:04:03.980Z,93.33
2022-09-13T04:07:07.071Z,93.01
2022-09-13T04:10:13.930Z,93.08
2022-09-13T04:13:17.614Z,93.04
2022-09-13T04:16:20.524Z,93.01
2022-09-13T04:19:24.234Z,92.87
2022-09-13T04:22:26.932Z,92.55
2022-09-13T04:25:30.980Z,92.46
2022-09-13T04:28:34.636Z,92.19
2022-09-13T04:31:37.397Z,92.29
2022-09-13T04:34:42.818Z,91.97
2022-09-13T04:37:45.793Z,91.79
2022-09-13T04:40:55.279Z,91.73
2022-09-13T04:43:58.014Z,91.48
2022-09-13T04:47:00.918Z,91.42
2022-09-13T04:50:03.991Z,91.41
2022-09-13T04:53:06.928Z,91.45
2022-09-13T04:56:11.347Z,91.42
2022-09-13T04:59:14.789Z,91.18
2022-09-13T05:02:17.609Z,91.27
2022-09-13T05:05:20.322Z,91.43
2022-09-13T05:08:23.662Z,91.21
2022-09-13T05:11:29.687Z,91.26
2022-09-13T05:14:32.439Z,91.22
2022-09-13T05:17:35.729Z,91.04
2022-09-13T05:20:38.418Z,91.34
2022-09-13T05:23:43.638Z,91.64
2022-09-13T05:26:48.133Z,91.84
2022-09-13T05:29:52.604Z,91.75
2022-09-13T05:32:57.253Z,91.95
2022-09-13T05:36:00.472Z,91.64
2022-09-13T05:39:29.567Z,91.50
2022-09-13T05:42:31.391Z,91.04
2022-09-13T05:45:34.568Z,90.42
2022-09-13T05:48:37.952Z,90.14
2022-09-13T05:51:41.417Z,90.12
2022-09-13T05:54:44.459Z,90.00
2022-09-13T05:57:48.916Z,90.72
2022-09-13T06:00:54.359Z,91.21
2022-09-13T06:03:59.009Z,91.93
2022-09-13T06:07:01.645Z,92.61
2022-09-13T06:10:05.604Z,93.61
2022-09-13T06:13:09.668Z,93.77
2022-09-13T06:16:14.790Z,93.90
2022-09-13T06:19:17.634Z,93.73
2022-09-13T06:22:20.754Z,93.69
2022-09-13T06:25:23.450Z,93.40
2022-09-13T06:28:28.037Z,93.84
2022-09-13T06:31:34.810Z,93.32
2022-09-13T06:34:37.529Z,93.40
2022-09-13T06:37:40.850Z,93.69
2022-09-13T06:40:43.595Z,93.88
2022-09-13T06:43:49.125Z,93.81
2022-09-13T06:46:51.813Z,93.41
2022-09-13T06:49:54.913Z,93.57
2022-09-13T06:52:57.840Z,93.49
2022-09-13T06:56:07.396Z,93.24
2022-09-13T06:59:12.735Z,93.12
2022-09-13T07:02:16.668Z,92.42
2022-09-13T07:05:21.754Z,92.32
2022-09-13T07:08:24.408Z,92.47
2022-09-13T07:11:31.863Z,93.11
2022-09-13T07:14:35.912Z,93.56
2022-09-13T07:17:38.546Z,94.07
2022-09-13T07:20:41.661Z,93.69
2022-09-13T07:23:44.519Z,93.60
2022-09-13T07:26:47.906Z,93.92
2022-09-13T07:29:51.943Z,93.90
2022-09-13T07:32:54.859Z,93.61
2022-09-13T07:35:59.658Z,92.92
2022-09-13T07:39:02.879Z,92.08
2022-09-13T07:42:05.892Z,91.29
2022-09-13T07:45:12.722Z,91.42
2022-09-13T07:48:15.373Z,91.14
2022-09-13T07:51:20.186Z,90.58
2022-09-13T07:54:22.838Z,90.22
2022-09-13T07:57:25.630Z,89.47
2022-09-13T08:00:29.963Z,88.98
2022-09-13T08:03:32.871Z,87.86
2022-09-13T08:06:37.094Z,87.79
2022-09-13T08:09:39.863Z,88.09
2022-09-13T08:12:42.499Z,87.94
2022-09-13T08:15:46.734Z,88.53
2022-09-13T08:18:51.966Z,89.80
2022-09-13T08:21:54.838Z,89.73
2022-09-13T08:24:57.460Z,90.54
2022-09-13T08:28:00.284Z,90.37
2022-09-13T08:31:09.772Z,91.19
2022-09-13T08:34:14.769Z,92.64
2022-09-13T08:37:17.487Z,93.69
2022-09-13T08:40:20.898Z,94.48
2022-09-13T08:43:36.206Z,94.19
2022-09-13T08:46:42.858Z,94.35
2022-09-13T08:49:49.012Z,93.39
2022-09-13T08:53:09.683Z,93.36
2022-09-13T08:56:21.821Z,92.98
2022-09-13T08:59:41.249Z,92.36
2022-09-13T09:03:04.887Z,90.79
2022-09-13T09:06:13.113Z,89.71
2022-09-13T09:09:19.410Z,88.96
2022-09-13T09:12:30.677Z,88.90
2022-09-13T09:15:37.778Z,87.59
2022-09-13T09:18:46.213Z,88.34
2022-09-13T09:21:51.549Z,87.37
2022-09-13T09:24:57.402Z,87.47
2022-09-13T09:28:00.852Z,86.60
2022-09-13T09:31:10.614Z,86.20
2022-09-13T09:34:23.585Z,86.48
2022-09-13T09:37:29.448Z,86.32
2022-09-13T09:40:34.820Z,86.77
2022-09-13T09:43:42.653Z,86.85
2022-09-13T09:46:49.056Z,86.80
2022-09-13T09:50:10.574Z,87.59
2022-09-13T09:53:15.995Z,89.72
2022-09-13T09:56:25.395Z,91.39
2022-09-13T09:59:31.361Z,92.24
2022-09-13T10:02:36.296Z,92.75
2022-09-13T10:05:40.538Z,93.14
2022-09-13T10:08:48.503Z,93.82
2022-09-13T10:11:53.421Z,94.39
2022-09-13T10:15:06.060Z,94.47
2022-09-13T10:18:42.436Z,94.13
2022-09-13T10:21:46.880Z,93.24
2022-09-13T10:24:50.473Z,92.42
2022-09-13T10:27:55.578Z,91.68
2022-09-13T10:31:01.165Z,90.88
2022-09-13T10:34:06.969Z,90.54
2022-09-13T10:37:18.060Z,89.85
2022-09-13T10:40:26.988Z,89.26
2022-09-13T10:43:31.981Z,89.42
2022-09-13T10:46:37.316Z,87.70
2022-09-13T10:49:45.235Z,86.50
2022-09-13T10:52:50.817Z,85.73
2022-09-13T10:55:55.038Z,85.81
2022-09-13T10:59:15.453Z,85.48
2022-09-13T11:02:54.186Z,84.70
2022-09-13T11:06:06.546Z,84.13
2022-09-13T11:09:17.014Z,84.45
2022-09-13T11:12:26.491Z,84.45
2022-09-13T11:15:42.593Z,85.00
2022-09-13T11:18:57.630Z,86.14
2022-09-13T11:22:20.598Z,86.04
2022-09-13T11:25:34.423Z,86.45
2022-09-13T11:28:48.454Z,85.82
2022-09-13T11:31:59.979Z,84.75
2022-09-13T11:35:21.369Z,83.45
2022-09-13T11:38:45.841Z,82.54
2022-09-13T11:42:00.909Z,82.32
2022-09-13T11:45:21.884Z,81.96
2022-09-13T11:48:52.487Z,81.76
2022-09-13T11:52:04.325Z,81.90
2022-09-13T11:55:15.574Z,81.68
2022-09-13T11:58:25.676Z,81.58
2022-09-13T12:01:32.893Z,82.05
2022-09-13T12:04:54.933Z,81.01
2022-09-13T12:08:14.209Z,82.51
2022-09-13T12:11:20.188Z,80.94
2022-09-13T12:14:27.198Z,81.32
2022-09-13T12:17:36.592Z,81.86
2022-09-13T12:20:44.036Z,81.62
2022-09-13T12:23:54.233Z,82.04
2022-09-13T12:27:01.893Z,82.58
2022-09-13T12:30:08.402Z,82.22
2022-09-13T12:33:15.845Z,84.68
2022-09-13T12:36:47.561Z,91.70
2022-09-13T12:40:13.003Z,95.85
2022-09-13T12:43:45.074Z,97.37
2022-09-13T12:47:23.829Z,97.41
2022-09-13T12:50:47.018Z,97.15
2022-09-13T12:54:15.849Z,96.12
2022-09-13T12:57:30.135Z,95.83
2022-09-13T13:00:35.885Z,94.82
2022-09-13T13:03:50.168Z,93.55
2022-09-13T13:06:55.636Z,91.53
2022-09-13T13:09:59.578Z,90.87
2022-09-13T13:13:16.789Z,90.69
2022-09-13T13:16:29.131Z,90.76
2022-09-13T13:19:36.476Z,91.44
2022-09-13T13:22:54.091Z,90.19
2022-09-13T13:26:08.132Z,90.42
2022-09-13T13:29:19.078Z,90.87
2022-09-13T13:32:22.451Z,90.74
2022-09-13T13:35:33.199Z,89.83
2022-09-13T13:38:47.713Z,88.92
2022-09-13T13:41:54.693Z,88.32
2022-09-13T13:45:22.745Z,88.31
2022-09-13T13:48:38.214Z,87.75
2022-09-13T13:51:42.430Z,86.26
2022-09-13T13:55:04.333Z,84.46
2022-09-13T13:58:23.365Z,82.18
2022-09-13T14:01:29.349Z,81.09
2022-09-13T14:05:09.771Z,81.56
2022-09-13T14:08:33.310Z,81.74
2022-09-13T14:11:49.290Z,82.22
2022-09-13T14:15:15.491Z,82.41
2022-09-13T14:19:09.145Z,82.60
2022-09-13T14:22:15.536Z,82.71
2022-09-13T14:25:26.639Z,83.12
2022-09-13T14:28:30.104Z,83.19
2022-09-13T14:31:32.876Z,83.50
2022-09-13T14:34:38.639Z,84.34
2022-09-13T14:37:41.388Z,83.89
2022-09-13T14:40:48.806Z,83.79
2022-09-13T14:43:51.600Z,83.82
2022-09-13T14:47:00.887Z,84.65
2022-09-13T14:50:08.370Z,84.92
2022-09-13T14:53:16.129Z,84.99
2022-09-13T14:56:31.505Z,84.78
2022-09-13T14:59:37.799Z,85.22
2022-09-13T15:02:41.612Z,84.96
2022-09-13T15:05:53.012Z,84.99
2022-09-13T15:08:59.659Z,85.82
2022-09-13T15:12:03.777Z,86.26
2022-09-13T15:15:27.917Z,86.66
2022-09-13T15:18:36.412Z,86.98
2022-09-13T15:21:39.723Z,86.85
2022-09-13T15:24:47.175Z,86.99
2022-09-13T15:27:52.038Z,87.27
2022-09-13T15:30:56.628Z,87.29
2022-09-13T15:34:23.707Z,87.11
2022-09-13T15:37:32.477Z,86.95
2022-09-13T15:40:44.354Z,86.89
2022-09-13T15:43:51.481Z,87.06
2022-09-13T15:46:56.042Z,87.37
2022-09-13T15:49:59.481Z,88.04
2022-09-13T15:53:02.894Z,88.51
2022-09-13T15:56:06.813Z,88.98
2022-09-13T15:59:14.199Z,89.31
2022-09-13T16:02:21.050Z,89.67
2022-09-13T16:05:24.234Z,89.99
2022-09-13T16:08:26.947Z,90.50
2022-09-13T16:11:29.892Z,91.05
2022-09-13T16:14:35.396Z,90.98
2022-09-13T16:17:38.159Z,91.01
2022-09-13T16:20:41.012Z,91.25
2022-09-13T16:23:43.638Z,91.18
2022-09-13T16:26:46.381Z,90.84
2022-09-13T16:29:50.497Z,90.97
2022-09-13T16:32:53.261Z,91.39
2022-09-13T16:35:59.085Z,92.01
2022-09-13T16:39:05.247Z,92.42
2022-09-13T16:42:08.282Z,92.52
2022-09-13T16:45:12.935Z,92.56
2022-09-13T16:48:15.749Z,92.81
2022-09-13T16:51:18.450Z,93.06
2022-09-13T16:54:21.305Z,93.01
2022-09-13T16:57:24.174Z,92.66
2022-09-13T17:00:28.827Z,92.97
2022-09-13T17:03:31.848Z,93.00
2022-09-13T17:06:34.496Z,93.15
2022-09-13T17:09:37.623Z,93.40
2022-09-13T17:12:41.334Z,93.71
2022-09-13T17:15:45.467Z,93.83
2022-09-13T17:18:48.261Z,94.27
2022-09-13T17:21:52.138Z,94.21
2022-09-13T17:24:54.957Z,94.37
2022-09-13T17:27:57.609Z,94.56
2022-09-13T17:31:02.797Z,94.67
2022-09-13T17:34:05.889Z,95.01
2022-09-13T17:37:08.648Z,95.76
2022-09-13T17:40:11.496Z,96.56
2022-09-13T17:43:14.359Z,96.66
2022-09-13T17:46:21.684Z,97.20
2022-09-13T17:49:24.406Z,97.12
2022-09-13T17:52:28.229Z,96.88
2022-09-13T17:55:32.439Z,96.64
2022-09-13T17:58:35.686Z,96.77
2022-09-13T18:01:41.955Z,96.76
2022-09-13T18:04:44.665Z,96.85
2022-09-13T18:07:47.488Z,96.66
2022-09-13T18:11:10.692Z,96.49
2022-09-13T18:14:14.511Z,96.73
2022-09-13T18:17:18.716Z,96.75
2022-09-13T18:20:21.800Z,96.85
2022-09-13T18:23:25.738Z,96.97
2022-09-13T18:26:30.987Z,97.04
2022-09-13T18:29:33.670Z,97.28
2022-09-13T18:32:37.715Z,97.24
2022-09-13T18:35:40.429Z,97.49
2022-09-13T18:38:45.842Z,98.19
2022-09-13T18:41:49.115Z,98.46
2022-09-13T18:44:51.972Z,98.60
2022-09-13T18:47:57.141Z,98.68
2022-09-13T18:51:00.608Z,98.90
2022-09-13T18:54:04.966Z,99.05
2022-09-13T18:57:07.708Z,99.18
2022-09-13T19:00:12.089Z,98.96
2022-09-13T19:03:16.439Z,99.08
2022-09-13T19:06:22.120Z,99.17
2022-09-13T19:09:25.376Z,98.78
2022-09-13T19:12:28.220Z,98.72
2022-09-13T19:15:31.044Z,98.54
2022-09-13T19:18:36.542Z,98.59
2022-09-13T19:21:39.466Z,98.59
2022-09-13T19:24:42.239Z,98.52
2022-09-13T19:27:45.295Z,98.27
2022-09-13T19:30:50.693Z,98.28
2022-09-13T19:33:56.608Z,98.38
2022-09-13T19:36:59.399Z,98.43
2022-09-13T19:40:02.905Z,98.31
2022-09-13T19:43:06.952Z,98.33
2022-09-13T19:46:11.784Z,98.38
2022-09-13T19:49:17.915Z,98.50
2022-09-13T19:52:22.039Z,98.76
2022-09-13T19:55:25.073Z,99.17
2022-09-13T19:58:29.689Z,99.57
2022-09-13T20:01:34.893Z,99.61
2022-09-13T20:04:39.423Z,99.84
2022-09-13T20:07:44.626Z,99.95
2022-09-13T20:10:47.333Z,100.00
2022-09-13T20:13:50.066Z,100.00
2022-09-13T20:16:55.316Z,100.00
2022-09-13T20:19:59.364Z,100.00
2022-09-13T20:23:02.419Z,100.00
2022-09-13T20:26:13.512Z,100.00
2022-09-13T20:29:16.547Z,100.00
2022-09-13T20:32:19.854Z,100.00
2022-09-13T20:35:24.072Z,99.96
2022-09-13T20:38:27.519Z,99.70
2022-09-13T20:41:31.246Z,99.65
2022-09-13T20:44:35.493Z,99.64
2022-09-13T20:47:38.586Z,99.89
2022-09-13T20:50:42.970Z,99.67
2022-09-13T20:53:46.130Z,99.46
2022-09-13T20:56:49.636Z,99.48
2022-09-13T20:59:52.693Z,99.59
2022-09-13T21:02:56.449Z,99.29
2022-09-13T21:06:03.243Z,99.24
2022-09-13T21:09:06.202Z,99.15
2022-09-13T21:12:09.700Z,99.25
2022-09-13T21:15:12.368Z,99.24
2022-09-13T21:18:15.069Z,98.99
2022-09-13T21:21:21.891Z,99.26
2022-09-13T21:24:25.308Z,99.05
2022-09-13T21:27:28.106Z,99.26
2022-09-13T21:30:30.805Z,99.23
2022-09-13T21:33:34.105Z,99.20
2022-09-13T21:36:38.477Z,99.12
2022-09-13T21:39:41.846Z,99.11
2022-09-13T21:42:44.547Z,99.07
2022-09-13T21:45:47.763Z,99.04
2022-09-13T21:48:52.604Z,99.20
2022-09-13T21:51:57.179Z,99.21
2022-09-13T21:54:59.808Z,99.24
2022-09-13T21:58:04.422Z,99.38
2022-09-13T22:01:09.193Z,99.75
2022-09-13T22:04:16.516Z,100.00
2022-09-13T22:07:21.968Z,100.00
2022-09-13T22:10:24.657Z,100.00
2022-09-13T22:13:27.714Z,100.00
2022-09-13T22:16:32.895Z,100.00
2022-09-13T22:19:35.662Z,100.00
2022-09-13T22:22:40.213Z,100.00
2022-09-13T22:25:43.648Z,100.00
2022-09-13T22:28:47.434Z,100.00
2022-09-13T22:31:52.633Z,100.00
2022-09-13T22:34:56.157Z,100.00
2022-09-13T22:38:00.644Z,100.00
2022-09-13T22:41:05.619Z,100.00
2022-09-13T22:44:08.690Z,100.00
2022-09-13T22:47:11.743Z,100.00
2022-09-13T22:50:14.470Z,100.00
2022-09-13T22:53:18.472Z,100.00
2022-09-13T22:56:24.148Z,100.00
2022-09-13T22:59:26.949Z,100.00
2022-09-13T23:02:30.036Z,100.00
2022-09-13T23:05:32.657Z,100.00
2022-09-13T23:08:38.707Z,100.00
2022-09-13T23:11:41.802Z,100.00
2022-09-13T23:14:44.463Z,100.00
2022-09-13T23:17:47.322Z,100.00
2022-09-13T23:20:57.656Z,100.00
2022-09-13T23:24:02.875Z,100.00
2022-09-13T23:27:06.780Z,100.00
2022-09-13T23:30:10.539Z,100.00
2022-09-13T23:33:13.575Z,100.00
2022-09-13T23:36:17.859Z,100.00
2022-09-13T23:39:22.633Z,100.00
2022-09-13T23:42:25.648Z,100.00
2022-09-13T23:45:28.394Z,100.00
2022-09-13T23:48:31.866Z,100.00
2022-09-13T23:51:34.818Z,100.00
2022-09-13T23:54:39.284Z,100.00
2022-09-13T23:57:41.975Z,100.00
